Weather at First Flight Airport

Public forecast

Using degrees Fahrenheit for public forecast. Weather courtesy of forecast.io.

Current aviation weather report (METAR) for First Flight Airport

2024/06/21 23:30 (retrieved 10 minutes ago)

KFFA 212330Z AUTO 13009KT 10SM SCT027 26/21 A3016 RMK AO2 T02580205

Closest aviation forecast (TAF) to First Flight Airport

Closest forecast is Elizabeth City Regional Airport & Coast Guard Air Station, 28.4 nm (52.6 km) WNW.

2024/06/21 18:24 (retrieved 5 hours ago)

TAF TAF KECG 211720Z 2118/2218 13008KT P6SM SCT045 FM220100 17006KT P6SM SKC FM220900 21004KT P6SM SCT025 FM221300 22007KT P6SM SKC